ADDS TAF Board (Experimental) INFO Settings
IDs: Format: Expanded Condensed

KBWI - Baltimore-Washington, MD, US

Issued at 1505 UTC 04 Sep 2015
Updated at: 1631 UTC 04 Sep 2015
Time1554Z 04/17Z 04/18Z 04/19Z 04/20Z 04/21Z 04/22Z 04/23Z 05/00Z 05/01Z 05/02Z 05/03Z 05/04Z 05/05Z
Type OBS PRVL PRVL PRVL PRVL PRVL PRVL PRVL PRVL PRVL PRVL PRVL PRVL PRVL
VIS 6 >6 >6 >6 >6 >6 >6 >6 >6 >6 >6 >6 >6 >6
CIG -- 50 50 50 50 50 50 50 50 50 50 50 50 50
Cover SCT BKN BKN BKN BKN BKN BKN BKN BKN BKN BKN BKN BKN BKN
FltCat VFR VFR VFR VFR VFR VFR VFR VFR VFR VFR VFR VFR VFR VFR
WX HZ VCTS VCTS VCTS VCTS -- -- -- -- -- -- -- -- --
WDir 110 90 90 90 90 100 100 100 100 100 100 100 100 100
WSpd 6 8 8 8 8 11 11 11 11 11 11 11 11 11
WGst -- 16 16 16 16 18 18 18 18 18 18 18 18 18
R04/22
XWnd -6 -7 -7 -7 -7 -10 -10 -10 -10 -10 -10 -10 -10 -10
XGst -- -13 -13 -13 -13 -17 -17 -17 -17 -17 -17 -17 -17 -17
HWnd 1 4 4 4 4 4 4 4 4 4 4 4 4 4
HGst -- 9 9 9 9 7 7 7 7 7 7 7 7 7
R10/28
XWnd -2 1 1 1 1 -1 -1 -1 -1 -1 -1 -1 -1 -1
XGst -- 1 1 1 1 -2 -2 -2 -2 -2 -2 -2 -2 -2
HWnd 6 8 8 8 8 11 11 11 11 11 11 11 11 11
HGst -- 16 16 16 16 18 18 18 18 18 18 18 18 18
R15/33
XWnd 3 6 6 6 6 8 8 8 8 8 8 8 8 8
XGst -- 13 13 13 13 13 13 13 13 13 13 13 13 13
HWnd 5 5 5 5 5 8 8 8 8 8 8 8 8 8
HGst -- 9 9 9 9 13 13 13 13 13 13 13 13 13

NOTE: TEMPO conditions in [brackets]. Keep in mind TEMPO conditions might be better (lower impact) than prevailing conditions.

Raw TAF
KBWI 041505Z 0415/0518 04005KT P6SM SCT050 SCT150
  FM041700 09008G16KT P6SM VCTS BKN050CB
  FM042100 10011G18KT P6SM BKN050
  FM050900 06009KT P6SM SCT015 BKN020
  FM051400 07008KT P6SM BKN080


Raw METAR
KBWI 041554Z 11006KT 6SM HZ SCT070 SCT100 SCT250 30/19 A3003 RMK AO2 SLP168 T03000194
KBWI 041454Z VRB03KT 8SM SCT065 SCT100 SCT250 29/20 A3002 RMK AO2 SLP164 T02890200 53013
KBWI 041354Z 03006KT 10SM FEW250 29/20 A3000 RMK AO2 SLP158 T02890200

METAR Board
Radar Display
Forecast Discussion

TAF Board Legend

Potential Impact
Threat None Slight Moderate High
Visibility (sm) ≥5.1 5.1>X≥3 3>X≥1 <1
Ceiling (100 ft) ≥30.1 30.1>X≥10 10>X≥5 <5
Wind Speed (kt) <10 10≤X<20 20≤X<30 ≥30
Wind Gust (kt) <15 15≤X<25 25≤X<35 ≥35
Weather No Wx Reported VCTS,-TS,-FZRA,SN TS,FZRA +TS,+FZRA,+SN